Aeroporto :
LOGIN :

Iscrizione | Disclaimer

   EN    FR    IT 

 










Sommario :    VFR   VFR Marginale   IFR   IFR Intensivo   IFR Molto Intensivo
Visibilità : 
Base nubi : 
>= 8 km
>= 3000ft
5 / 8 km
1000 / 3000 ft
1500m / 5 km
500 / 1000 ft
800 / 1500m
200 / 500 ft
< 800m
< 200 ft
Simboli :   Temporali  Nebbia  Neve Forte  Precipitazioni Forti  Vento > 20 kt
SIGMETs :   Varie  Temporali  Ghiacco  Turbolenza  Onda orograficha  Ceneri Vulcaniche







- Altitudine del aeroporto : 53 ft
- Codice IATA : AGP


LEMG - Malaga

ULTIMO METAR :
  • 190200Z 18001KT 7000 -RA FEW020 SCT035 13/13 Q1002 NOSIG

METARs OBSOLETI :
  • 190130Z 16007KT 7000 -RA FEW020 SCT035 13/13 Q1002 NOSIG
  • 190100Z 14001KT 7000 -RA FEW020 SCT035 13/13 Q1002 RERA NOSIG
  • 190037Z 28002KT 9000 RA FEW020 SCT035 14/13 Q1002 NOSIG
  • 190000Z VRB01KT 9999 FEW020 SCT030 BKN070 14/13 Q1002 NOSIG

TAF TAF LEMG
Valido dal 19 a 00 ore il 20 a 00 ore UTC


182300Z 1900/1924 18005KT 9999 SCT020 SCT040 TX19/1914Z TN12/1906Z
PROB40
TEMPO 1900/1906 4000 SHRA SCT020TCU BKN040
BECMG 1903/1905 29007KT
Nessun NOTAM noto per questo aeroporto.
1 SIGMET conosciuto per la FIR Madrid (LECM) :
 
Turbolenza severa
LECM SIGMET 10 VALID 190100/190500 LEVA
LECM MADRID FIR/UIR SEV TURB FCST N OF LINE N4435 W00734 - N4241 W00003 FL210/320 MOV S NC=



MetMap, La meteo Aeronautica in un colpo d'occhio ! - Copyright ORBIFLY Dicembre 2007 - Disclaimer

ORBIFLY MET'MAP TEAM :

Programmazione e sviluppo : Alexandra Zaïnal
Concezione e sviluppo : Baudouin d'Aumeries
Co-Programmazione e sviluppo : Marc-Olivier Méhu
Supporto tecnico e logistico : Manuel Goepfert
Aiuto per la traduzione : Arnaldo La Scala

Contatto : metmap@orbifly.com




FONTI E CREDITI :

   NOAA